Time;durP1;ratioP1;P1;durP2;ratioP2;P2;SDS_P1;SDS_P2;PMS_P1;PMS_P2;Temp;Humidity;BMP_temperature;BMP_pressure;BME280_temperature;BME280_humidity;BME280_pressure;Samples;Min_cycle;Max_cycle;Signal;HPM_P1;HPM_P2
2023/11/07 00:01:22;;;;;;;5.13;3.45;;;;;;;13.84;92.64;100170.00;5078981;28;20319;-63
2023/11/07 00:03:47;;;;;;;6.88;3.50;;;;;;;13.87;93.62;100165.19;5076678;28;20056;-63
2023/11/07 00:06:12;;;;;;;8.13;4.50;;;;;;;13.91;94.77;100163.00;5079787;28;20043;-63
2023/11/07 00:08:38;;;;;;;5.55;3.20;;;;;;;13.94;95.01;100168.81;5076333;28;20035;-65
2023/11/07 00:11:04;;;;;;;6.20;3.50;;;;;;;13.91;95.06;100168.31;5079465;28;20036;-65
2023/11/07 00:13:30;;;;;;;5.35;3.17;;;;;;;13.86;95.71;100163.50;5077594;28;20040;-65
2023/11/07 00:15:55;;;;;;;7.85;3.47;;;;;;;13.85;95.70;100167.19;5078927;28;20330;-63
2023/11/07 00:18:21;;;;;;;6.30;3.70;;;;;;;13.87;95.54;100175.00;5077425;28;20028;-65
2023/11/07 00:20:46;;;;;;;6.90;3.33;;;;;;;13.88;95.12;100181.97;5078741;28;20268;-63
2023/11/07 00:23:13;;;;;;;5.32;3.05;;;;;;;13.91;95.46;100179.78;5076498;28;20426;-63
2023/11/07 00:25:39;;;;;;;7.47;3.72;;;;;;;13.92;95.29;100181.47;5078325;28;20034;-62
2023/11/07 00:28:05;;;;;;;8.55;3.42;;;;;;;13.96;94.97;100181.94;5076391;28;20032;-66
2023/11/07 00:30:30;;;;;;;8.10;3.85;;;;;;;13.87;95.13;100180.31;5078342;28;20040;-62
2023/11/07 00:32:56;;;;;;;7.40;3.55;;;;;;;13.82;95.91;100178.19;5075887;28;20028;-65
2023/11/07 00:35:22;;;;;;;6.82;3.15;;;;;;;13.69;96.33;100180.56;5078440;28;20082;-66
2023/11/07 00:37:50;;;;;;;7.30;3.55;;;;;;;13.51;97.73;100174.59;5076012;28;20028;-64
2023/11/07 00:40:16;;;;;;;7.57;3.58;;;;;;;13.50;98.36;100172.94;5077622;28;20044;-63
2023/11/07 00:42:42;;;;;;;7.20;3.97;;;;;;;13.48;98.30;100183.75;5077108;28;20432;-62
2023/11/07 00:45:08;;;;;;;7.10;3.50;;;;;;;13.49;98.35;100188.06;5075939;28;20045;-64
2023/11/07 00:47:34;;;;;;;8.13;3.60;;;;;;;13.53;98.03;100191.25;5077295;28;20033;-66
2023/11/07 00:49:59;;;;;;;9.90;3.45;;;;;;;13.63;97.50;100198.03;5075569;28;20039;-63
2023/11/07 00:52:24;;;;;;;11.02;4.07;;;;;;;13.63;96.65;100192.72;5077368;28;20203;-62
2023/11/07 00:54:50;;;;;;;8.98;4.30;;;;;;;13.65;96.01;100196.03;5077100;28;20032;-63
2023/11/07 00:57:16;;;;;;;6.55;4.18;;;;;;;13.74;95.23;100188.84;5077205;28;20062;-65
2023/11/07 00:59:41;;;;;;;6.00;3.95;;;;;;;13.79;95.30;100189.16;5075817;28;20249;-65
2023/11/07 01:02:07;;;;;;;6.53;4.00;;;;;;;13.84;95.02;100199.28;5078391;28;20027;-63
2023/11/07 01:04:32;;;;;;;6.63;3.65;;;;;;;13.81;94.91;100199.63;5076850;28;20318;-63
2023/11/07 01:06:58;;;;;;;8.05;3.67;;;;;;;13.80;94.78;100192.66;5078556;28;20356;-66
2023/11/07 01:09:23;;;;;;;5.53;3.75;;;;;;;13.66;95.53;100205.66;5076209;28;20402;-63
2023/11/07 01:11:49;;;;;;;6.45;3.75;;;;;;;13.74;95.40;100210.97;5078026;28;20032;-65
2023/11/07 01:14:14;;;;;;;5.57;3.65;;;;;;;13.72;95.03;100212.97;5075542;28;20036;-65
2023/11/07 01:16:39;;;;;;;5.43;3.35;;;;;;;13.74;95.18;100210.97;5077810;28;20032;-62
2023/11/07 01:19:05;;;;;;;4.45;3.40;;;;;;;13.68;95.14;100214.31;5075126;28;20029;-62
2023/11/07 01:21:30;;;;;;;5.88;3.78;;;;;;;13.66;95.64;100204.84;5077458;28;20037;-63
2023/11/07 01:23:56;;;;;;;9.20;3.95;;;;;;;13.69;95.32;100205.34;5075335;28;20334;-62
2023/11/07 01:26:22;;;;;;;5.88;3.35;;;;;;;13.68;94.84;100211.66;5077174;28;20039;-65
2023/11/07 01:28:47;;;;;;;7.43;3.30;;;;;;;13.66;94.81;100212.81;5076709;28;20041;-63
2023/11/07 01:31:13;;;;;;;7.78;3.20;;;;;;;13.57;95.10;100214.69;5075788;28;20352;-62
2023/11/07 01:33:38;;;;;;;4.85;3.08;;;;;;;13.60;95.17;100218.81;5077178;28;20063;-65
2023/11/07 01:36:04;;;;;;;8.00;3.78;;;;;;;13.58;94.85;100212.84;5075685;28;20040;-62
2023/11/07 01:38:29;;;;;;;5.78;3.03;;;;;;;13.52;95.07;100214.31;5077347;28;20337;-62
2023/11/07 01:40:55;;;;;;;6.55;3.50;;;;;;;13.49;95.07;100224.47;5075258;28;20418;-63
2023/11/07 01:43:21;;;;;;;6.60;3.22;;;;;;;13.50;95.05;100226.13;5077666;28;20024;-62
2023/11/07 01:45:47;;;;;;;6.55;3.70;;;;;;;13.45;95.51;100229.31;5075330;28;20097;-63
2023/11/07 01:48:13;;;;;;;7.03;3.60;;;;;;;13.51;94.89;100225.13;5075629;28;20322;-62
2023/11/07 01:50:40;;;;;;;5.20;3.20;;;;;;;13.50;94.68;100218.16;5076970;28;20060;-65
2023/11/07 01:53:06;;;;;;;6.20;3.25;;;;;;;13.46;94.31;100230.97;5075229;28;20025;-65
2023/11/07 01:55:34;;;;;;;5.47;2.90;;;;;;;13.43;94.70;100239.28;5076296;28;20036;-62
2023/11/07 01:58:01;;;;;;;7.88;4.05;;;;;;;13.39;94.48;100237.97;5074874;28;20051;-62
2023/11/07 02:00:27;;;;;;;5.63;3.03;;;;;;;13.35;94.15;100231.31;5076221;28;20040;-65
2023/11/07 02:02:53;;;;;;;6.70;3.10;;;;;;;13.36;94.39;100241.78;5074514;28;20333;-63
2023/11/07 02:05:19;;;;;;;4.57;3.42;;;;;;;13.31;94.34;100249.44;5077243;28;20041;-65
2023/11/07 02:07:44;;;;;;;5.10;3.13;;;;;;;13.33;94.53;100242.13;5074791;28;20040;-63
2023/11/07 02:10:10;;;;;;;7.68;3.38;;;;;;;13.29;94.49;100248.78;5077097;28;20041;-65
2023/11/07 02:12:38;;;;;;;5.72;2.97;;;;;;;13.23;94.20;100264.56;5075154;28;20028;-65
2023/11/07 02:15:19;;;;;;;6.72;3.25;;;;;;;13.13;94.56;100256.72;5075601;28;20272;-65
2023/11/07 02:17:45;;;;;;;4.63;3.03;;;;;;;13.04;95.02;100263.88;5076530;28;20732;-65
2023/11/07 02:20:12;;;;;;;7.50;3.22;;;;;;;13.04;95.42;100260.38;5075116;28;20060;-62
2023/11/07 02:22:40;;;;;;;5.38;3.17;;;;;;;13.04;95.07;100261.19;5076964;28;20044;-62
2023/11/07 02:25:12;;;;;;;5.70;2.80;;;;;;;13.10;94.79;100265.84;5073944;28;20357;-65
2023/11/07 02:27:37;;;;;;;5.20;3.60;;;;;;;13.10;94.58;100265.84;5076680;28;20047;-65
2023/11/07 02:30:04;;;;;;;6.20;3.00;;;;;;;13.09;94.14;100260.72;5073879;28;20064;-63
2023/11/07 02:32:29;;;;;;;6.03;2.42;;;;;;;13.03;91.77;100261.38;5076787;28;20077;-65
2023/11/07 02:34:55;;;;;;;6.90;2.85;;;;;;;13.00;90.00;100264.34;5074588;28;20040;-63
2023/11/07 02:37:21;;;;;;;6.30;2.90;;;;;;;12.79;90.06;100264.84;5075348;28;20044;-64
2023/11/07 02:39:47;;;;;;;3.25;2.85;;;;;;;12.82;90.58;100264.50;5078250;28;20403;-65
2023/11/07 02:42:13;;;;;;;3.45;2.88;;;;;;;12.83;92.49;100268.81;5075390;28;20081;-62
2023/11/07 02:44:38;;;;;;;6.88;3.58;;;;;;;12.91;92.04;100268.84;5076059;28;20102;-66
2023/11/07 02:47:04;;;;;;;7.68;3.40;;;;;;;12.95;91.52;100267.50;5074485;28;20230;-63
2023/11/07 02:49:30;;;;;;;6.25;3.20;;;;;;;12.84;92.43;100273.16;5077180;28;20237;-62
2023/11/07 02:51:56;;;;;;;7.45;2.97;;;;;;;12.98;91.85;100263.69;5075135;28;20059;-65
2023/11/07 02:54:21;;;;;;;4.22;2.55;;;;;;;12.91;91.26;100271.50;5076019;28;20041;-65
2023/11/07 02:56:47;;;;;;;3.53;2.72;;;;;;;12.78;89.85;100271.13;5074681;28;20036;-63
2023/11/07 02:59:13;;;;;;;6.68;2.90;;;;;;;12.84;89.95;100274.97;5076532;28;20231;-65
2023/11/07 03:01:38;;;;;;;5.05;2.80;;;;;;;12.90;90.17;100267.16;5075072;28;20221;-65
2023/11/07 03:04:04;;;;;;;5.18;2.55;;;;;;;12.93;89.91;100274.81;5078114;28;20040;-63
2023/11/07 03:06:30;;;;;;;5.05;3.05;;;;;;;12.90;90.77;100274.31;5074638;28;20047;-65
2023/11/07 03:08:56;;;;;;;8.15;3.50;;;;;;;12.88;91.20;100274.47;5077327;28;20207;-62
2023/11/07 03:11:22;;;;;;;5.45;2.72;;;;;;;12.87;91.67;100274.63;5074170;28;20377;-62
2023/11/07 03:13:48;;;;;;;4.10;2.75;;;;;;;12.87;90.53;100283.44;5076219;28;20280;-63
2023/11/07 03:16:13;;;;;;;4.78;2.50;;;;;;;12.66;87.54;100286.56;5078239;28;20029;-62
2023/11/07 03:18:38;;;;;;;4.78;2.47;;;;;;;12.58;88.49;100296.34;5078305;28;20376;-65
2023/11/07 03:21:07;;;;;;;5.88;2.95;;;;;;;12.57;89.38;100299.97;5077907;28;20036;-65
2023/11/07 03:23:33;;;;;;;7.10;3.25;;;;;;;12.52;90.57;100292.50;5079313;28;20040;-68
2023/11/07 03:25:58;;;;;;;4.22;3.05;;;;;;;12.57;91.68;100295.50;5076501;28;20107;-68
2023/11/07 03:28:24;;;;;;;5.38;2.90;;;;;;;12.63;91.71;100296.69;5079739;28;20021;-65
2023/11/07 03:30:49;;;;;;;3.97;3.17;;;;;;;12.65;91.66;100294.69;5076654;28;20387;-66
2023/11/07 03:33:19;;;;;;;5.47;3.10;;;;;;;12.67;92.52;100298.03;5078074;28;20036;-67
2023/11/07 03:35:46;;;;;;;5.88;3.40;;;;;;;12.69;92.48;100291.56;5077764;28;20216;-65
2023/11/07 03:38:12;;;;;;;9.43;3.20;;;;;;;12.59;92.63;100304.13;5078985;28;20029;-65
2023/11/07 03:40:38;;;;;;;5.15;3.42;;;;;;;12.46;94.08;100301.91;5077871;28;20043;-67
2023/11/07 03:43:04;;;;;;;5.70;3.15;;;;;;;12.50;93.90;100291.00;5079221;28;20033;-65
2023/11/07 03:45:30;;;;;;;7.25;3.20;;;;;;;12.54;94.07;100293.16;5076728;28;20091;-67
2023/11/07 03:47:55;;;;;;;3.83;2.90;;;;;;;12.56;94.56;100306.28;5079316;28;20032;-64
2023/11/07 03:50:22;;;;;;;7.63;3.13;;;;;;;12.52;93.89;100304.94;5077177;28;20103;-65
2023/11/07 03:52:48;;;;;;;5.85;3.30;;;;;;;12.44;94.55;100314.50;5079471;28;20068;-67
2023/11/07 03:55:13;;;;;;;4.97;3.25;;;;;;;12.42;94.49;100308.53;5078271;28;20044;-65
2023/11/07 03:57:39;;;;;;;8.00;3.55;;;;;;;12.45;94.54;100307.38;5079925;28;20222;-67
2023/11/07 04:00:08;;;;;;;6.68;5.20;;;;;;;12.51;93.98;100311.25;5077934;28;20047;-66
2023/11/07 04:02:33;;;;;;;6.85;4.90;;;;;;;12.49;93.73;100300.78;5078401;28;20068;-68
2023/11/07 04:04:59;;;;;;;6.53;4.00;;;;;;;12.50;93.30;100310.41;5076173;28;20036;-67
2023/11/07 04:07:24;;;;;;;9.18;5.70;;;;;;;12.49;93.52;100307.94;5079061;28;20046;-68
2023/11/07 04:09:50;;;;;;;9.20;5.43;;;;;;;12.38;93.56;100309.00;5076965;28;20044;-65
2023/11/07 04:12:16;;;;;;;5.47;3.83;;;;;;;12.34;93.31;100303.19;5078391;28;20033;-65
2023/11/07 04:14:45;;;;;;;8.73;3.90;;;;;;;12.34;93.47;100308.50;5077950;28;20238;-68
2023/11/07 04:17:11;;;;;;;9.50;4.57;;;;;;;12.38;93.34;100309.84;5077203;28;20040;-67
2023/11/07 04:19:36;;;;;;;10.77;6.50;;;;;;;12.42;93.45;100313.00;5078027;28;20557;-64
2023/11/07 04:22:04;;;;;;;12.57;6.82;;;;;;;12.44;92.78;100316.34;5077421;28;20025;-68
2023/11/07 04:24:30;;;;;;;11.88;5.80;;;;;;;12.47;92.97;100316.03;5078691;28;20345;-65
2023/11/07 04:26:57;;;;;;;9.55;5.38;;;;;;;12.49;92.54;100318.53;5077148;28;20043;-67
2023/11/07 04:29:23;;;;;;;10.77;5.00;;;;;;;12.47;92.72;100319.50;5078541;28;20032;-67
2023/11/07 04:31:48;;;;;;;11.35;5.50;;;;;;;12.51;92.85;100322.72;5076446;28;20073;-68
2023/11/07 04:34:14;;;;;;;13.20;6.78;;;;;;;12.51;92.83;100329.84;5078750;28;20072;-66
2023/11/07 04:36:39;;;;;;;12.48;7.05;;;;;;;12.46;93.14;100322.31;5075949;28;20051;-65
2023/11/07 04:39:05;;;;;;;16.40;7.70;;;;;;;12.45;92.28;100318.00;5078650;28;20043;-68
2023/11/07 04:41:33;;;;;;;9.45;5.85;;;;;;;12.51;92.02;100330.69;5075298;28;20406;-65
2023/11/07 04:44:00;;;;;;;17.27;6.70;;;;;;;12.48;91.91;100328.31;5076938;28;20064;-68
2023/11/07 04:46:26;;;;;;;13.40;7.07;;;;;;;12.50;91.28;100333.50;5078676;28;20332;-68
2023/11/07 04:48:52;;;;;;;11.82;7.68;;;;;;;12.50;91.92;100336.16;5076251;28;20036;-66
2023/11/07 04:51:20;;;;;;;15.10;7.32;;;;;;;12.46;91.74;100339.09;5076523;28;20032;-65
2023/11/07 04:53:46;;;;;;;12.15;7.93;;;;;;;12.40;91.95;100334.41;5077774;28;20356;-64
2023/11/07 04:56:12;;;;;;;8.63;5.00;;;;;;;12.38;92.33;100339.06;5077305;28;20303;-65
2023/11/07 04:58:37;;;;;;;9.57;5.53;;;;;;;12.34;92.44;100343.03;5076157;28;20060;-67
2023/11/07 05:01:05;;;;;;;12.95;4.38;;;;;;;12.33;92.81;100351.16;5076192;28;20032;-64
2023/11/07 05:03:31;;;;;;;9.80;4.55;;;;;;;12.32;92.76;100358.28;5078100;28;20040;-67
2023/11/07 05:05:58;;;;;;;9.30;4.40;;;;;;;12.35;93.06;100354.47;5075478;28;20032;-67
2023/11/07 05:08:23;;;;;;;6.80;4.40;;;;;;;12.38;92.85;100362.13;5073998;28;20357;-65
2023/11/07 05:10:49;;;;;;;9.82;4.10;;;;;;;12.35;92.41;100360.63;5076124;28;20028;-64
2023/11/07 05:13:15;;;;;;;5.97;3.88;;;;;;;12.39;92.13;100371.75;5076268;28;20359;-65
2023/11/07 05:15:42;;;;;;;11.30;4.40;;;;;;;12.34;91.92;100380.19;5077734;28;20222;-65
2023/11/07 05:18:11;;;;;;;9.27;3.88;;;;;;;12.22;92.60;100383.28;5076611;28;20036;-66
2023/11/07 05:20:38;;;;;;;9.07;3.67;;;;;;;12.12;93.40;100392.19;5076513;28;20036;-68
2023/11/07 05:23:04;;;;;;;14.25;4.05;;;;;;;12.07;93.31;100386.50;5077679;28;20044;-68
2023/11/07 05:25:29;;;;;;;7.70;4.15;;;;;;;12.10;94.11;100385.38;5075783;28;20211;-67
2023/11/07 05:27:54;;;;;;;7.25;4.45;;;;;;;12.19;93.54;100387.09;5076092;28;20044;-65
2023/11/07 05:30:20;;;;;;;8.18;4.88;;;;;;;12.23;93.44;100388.44;5077341;28;20334;-65
2023/11/07 05:32:47;;;;;;;9.27;4.72;;;;;;;12.28;93.16;100390.63;5075220;28;20032;-65
2023/11/07 05:35:14;;;;;;;12.90;5.28;;;;;;;12.32;92.86;100397.28;5074784;28;20297;-64
2023/11/07 05:37:39;;;;;;;8.80;4.68;;;;;;;12.33;92.61;100396.28;5076400;28;20059;-64
2023/11/07 05:40:06;;;;;;;6.97;4.18;;;;;;;12.32;92.15;100395.47;5075933;28;20064;-65
2023/11/07 05:42:31;;;;;;;8.15;4.25;;;;;;;12.33;92.60;100396.28;5076147;28;20039;-65
2023/11/07 05:44:57;;;;;;;7.55;4.15;;;;;;;12.37;92.35;100398.47;5075899;28;20353;-68
2023/11/07 05:47:22;;;;;;;7.60;4.30;;;;;;;12.38;92.19;100391.34;5078465;28;20100;-65
2023/11/07 05:49:50;;;;;;;9.23;4.53;;;;;;;12.42;92.14;100393.53;5077462;28;20055;-67
2023/11/07 05:52:16;;;;;;;8.20;5.47;;;;;;;12.44;91.87;100401.34;5076406;28;20039;-67
2023/11/07 05:54:42;;;;;;;7.82;5.53;;;;;;;12.42;91.97;100404.16;5076159;28;20032;-68
2023/11/07 05:57:08;;;;;;;10.80;4.90;;;;;;;12.40;91.97;100411.44;5076608;28;20036;-68
2023/11/07 05:59:34;;;;;;;7.05;4.07;;;;;;;12.36;92.69;100407.44;5077046;28;20421;-66
2023/11/07 06:01:59;;;;;;;8.13;5.28;;;;;;;12.37;92.68;100413.56;5077065;28;20221;-66
2023/11/07 06:04:30;;;;;;;8.38;4.97;;;;;;;12.45;92.93;100410.97;5076346;28;20039;-68
2023/11/07 06:06:57;;;;;;;8.05;3.63;;;;;;;12.47;92.70;100419.59;5077327;28;20036;-67
2023/11/07 06:09:22;;;;;;;8.00;3.90;;;;;;;12.41;93.71;100415.75;5075268;28;20098;-68
2023/11/07 06:11:47;;;;;;;8.55;4.43;;;;;;;12.62;92.92;100420.72;5076566;28;20048;-67
2023/11/07 06:14:13;;;;;;;7.47;4.45;;;;;;;12.77;92.90;100423.59;5074313;28;20238;-67
2023/11/07 06:16:42;;;;;;;8.65;4.05;;;;;;;12.92;92.42;100427.31;5076555;28;20031;-66
2023/11/07 06:19:10;;;;;;;9.85;4.30;;;;;;;13.11;91.61;100431.53;5074912;28;20044;-65
2023/11/07 06:21:36;;;;;;;12.32;5.40;;;;;;;13.08;91.34;100429.19;5076853;28;20021;-62
2023/11/07 06:24:02;;;;;;;18.73;8.98;;;;;;;13.08;91.40;100434.53;5073956;28;20039;-65
2023/11/07 06:26:27;;;;;;;11.25;7.60;;;;;;;13.08;91.81;100423.88;5077051;28;20032;-65
2023/11/07 06:28:53;;;;;;;10.73;7.05;;;;;;;13.23;91.86;100426.78;5073996;28;20234;-65
2023/11/07 06:31:26;;;;;;;11.20;4.10;;;;;;;13.43;91.50;100431.66;5076898;28;20037;-62
2023/11/07 06:33:52;;;;;;;7.10;4.95;;;;;;;13.40;92.00;100425.81;5074744;28;20097;-65
2023/11/07 06:36:18;;;;;;;11.13;4.43;;;;;;;13.62;91.53;100435.03;5075629;28;20033;-63
2023/11/07 06:38:43;;;;;;;7.20;4.85;;;;;;;13.74;90.61;100433.72;5074664;28;20037;-63
2023/11/07 06:41:09;;;;;;;8.88;6.22;;;;;;;13.67;90.91;100428.22;5075348;28;20096;-65
2023/11/07 06:43:35;;;;;;;8.52;6.32;;;;;;;13.88;90.81;100437.53;5074472;28;20041;-62
2023/11/07 06:46:02;;;;;;;9.30;4.13;;;;;;;14.13;90.75;100441.03;5075698;28;20052;-65
2023/11/07 06:48:28;;;;;;;10.45;4.78;;;;;;;14.14;91.26;100432.03;5079245;28;20028;-65
2023/11/07 06:50:54;;;;;;;7.07;2.75;;;;;;;14.37;90.63;100439.16;5080252;28;20029;-62
2023/11/07 06:53:20;;;;;;;5.32;2.67;;;;;;;14.57;89.57;100430.84;5078442;28;20032;-63
2023/11/07 06:55:46;;;;;;;5.72;2.83;;;;;;;14.56;90.10;100429.13;5078528;28;20032;-64
2023/11/07 06:58:11;;;;;;;5.50;3.08;;;;;;;14.57;89.35;100438.84;5078782;28;20107;-65
2023/11/07 07:00:38;;;;;;;6.55;3.85;;;;;;;14.79;88.83;100434.59;5077624;28;20040;-65
2023/11/07 07:03:03;;;;;;;3.13;2.83;;;;;;;14.86;87.96;100422.22;5078137;28;20043;-62
2023/11/07 07:05:29;;;;;;;8.77;3.28;;;;;;;14.97;88.09;100438.69;5078058;28;20040;-65
2023/11/07 07:07:54;;;;;;;6.60;3.85;;;;;;;14.98;87.81;100436.84;5078036;28;20346;-65
2023/11/07 07:10:20;;;;;;;6.22;2.80;;;;;;;15.14;87.80;100438.59;5077452;28;20045;-65
2023/11/07 07:12:46;;;;;;;6.47;4.30;;;;;;;15.17;87.41;100438.25;5077962;28;20303;-65
2023/11/07 07:15:11;;;;;;;7.90;4.40;;;;;;;15.14;87.54;100444.78;5077851;28;20059;-65
2023/11/07 07:17:37;;;;;;;5.57;4.03;;;;;;;15.11;87.76;100445.13;5077703;28;20337;-65
2023/11/07 07:20:11;;;;;;;5.60;5.00;;;;;;;15.10;88.12;100440.78;5076791;28;20028;-65
2023/11/07 07:22:39;;;;;;;11.82;10.68;;;;;;;14.98;89.07;100423.50;5076488;28;20334;-66
2023/11/07 07:25:05;;;;;;;6.28;3.78;;;;;;;15.05;89.58;100426.31;5076322;28;20266;-62
2023/11/07 07:27:33;;;;;;;8.13;6.95;;;;;;;14.98;90.10;100423.50;5077344;28;20181;-63
2023/11/07 07:29:59;;;;;;;4.85;2.88;;;;;;;15.04;89.41;100428.16;5077968;28;20246;-65
2023/11/07 07:32:26;;;;;;;4.80;2.50;;;;;;;14.97;90.60;100424.50;5077383;28;20066;-63
2023/11/07 07:34:52;;;;;;;8.35;4.00;;;;;;;15.10;91.63;100435.44;5077210;28;20032;-62
2023/11/07 07:37:20;;;;;;;7.20;3.20;;;;;;;15.23;89.87;100432.22;5077395;28;20229;-65
2023/11/07 07:39:50;;;;;;;6.35;3.47;;;;;;;15.31;90.73;100426.84;5076969;28;20085;-62
2023/11/07 07:42:17;;;;;;;4.55;4.15;;;;;;;15.43;89.32;100427.25;5076879;28;20036;-62
2023/11/07 07:44:43;;;;;;;9.65;6.30;;;;;;;15.45;89.48;100423.41;5075642;28;20180;-65
2023/11/07 07:47:09;;;;;;;6.07;3.22;;;;;;;15.77;88.73;100427.75;5076376;28;20040;-62
2023/11/07 07:49:36;;;;;;;7.15;5.47;;;;;;;15.87;87.38;100431.00;5075779;28;20059;-66
2023/11/07 07:52:08;;;;;;;6.80;3.72;;;;;;;15.86;86.30;100433.84;5075730;28;20059;-62
2023/11/07 07:54:37;;;;;;;6.43;3.20;;;;;;;15.94;86.65;100436.44;5075276;28;20226;-65
2023/11/07 07:57:05;;;;;;;3.70;2.78;;;;;;;15.96;87.27;100423.75;5075221;28;20028;-65
2023/11/07 07:59:31;;;;;;;5.53;4.55;;;;;;;16.07;87.35;100420.63;5075561;28;20108;-66
2023/11/07 08:01:57;;;;;;;8.48;5.32;;;;;;;16.17;85.00;100423.88;5076018;28;20060;-65
2023/11/07 08:04:24;;;;;;;7.97;5.50;;;;;;;16.15;84.59;100415.22;5076089;28;20140;-68
2023/11/07 08:06:49;;;;;;;5.88;2.72;;;;;;;16.17;84.24;100418.53;5076037;28;20222;-65
2023/11/07 08:09:18;;;;;;;8.77;5.13;;;;;;;16.25;84.08;100422.97;5076219;28;20043;-67
2023/11/07 08:11:45;;;;;;;4.50;2.95;;;;;;;16.37;83.66;100426.84;5076018;28;20139;-65
2023/11/07 08:14:11;;;;;;;6.45;3.53;;;;;;;16.48;83.34;100437.09;5075881;28;20039;-68
2023/11/07 08:16:36;;;;;;;10.93;4.25;;;;;;;16.44;81.75;100438.47;5076015;28;20281;-65
2023/11/07 08:19:03;;;;;;;7.10;4.30;;;;;;;16.57;82.34;100429.81;5075856;28;20383;-68
2023/11/07 08:21:29;;;;;;;8.13;3.30;;;;;;;16.73;83.10;100434.22;5076830;28;20227;-68
2023/11/07 08:23:55;;;;;;;7.07;4.60;;;;;;;16.81;81.06;100434.13;5076362;28;20122;-68
2023/11/07 08:26:22;;;;;;;4.47;3.22;;;;;;;16.87;80.41;100436.88;5076146;28;20044;-66
2023/11/07 08:28:48;;;;;;;5.97;3.08;;;;;;;17.00;78.19;100443.41;5075657;28;20345;-68
2023/11/07 08:31:14;;;;;;;8.65;5.78;;;;;;;17.06;78.30;100446.16;5077096;28;20073;-68
2023/11/07 08:33:40;;;;;;;7.03;4.70;;;;;;;17.10;79.69;100451.97;5076088;28;20043;-66
2023/11/07 08:36:09;;;;;;;7.22;3.00;;;;;;;17.24;79.54;100449.28;5076531;28;20029;-65
2023/11/07 08:38:35;;;;;;;6.70;3.20;;;;;;;17.37;78.56;100453.13;5076795;28;20075;-66
2023/11/07 08:41:01;;;;;;;8.85;3.65;;;;;;;17.41;78.24;100455.22;5075997;28;20039;-68
2023/11/07 08:43:27;;;;;;;5.40;2.97;;;;;;;17.44;78.42;100446.81;5075500;28;20028;-66
2023/11/07 08:45:52;;;;;;;12.25;11.05;;;;;;;17.41;79.40;100449.03;5075177;28;20051;-65
2023/11/07 08:48:17;;;;;;;7.03;3.45;;;;;;;17.38;77.54;100449.41;5075660;28;20040;-68
2023/11/07 08:50:43;;;;;;;9.88;3.28;;;;;;;17.36;76.93;100451.47;5075612;28;20034;-65
2023/11/07 08:53:09;;;;;;;6.13;2.63;;;;;;;17.44;76.21;100454.84;5075471;28;20028;-65
2023/11/07 08:55:35;;;;;;;7.38;4.20;;;;;;;17.53;75.97;100451.03;5073242;28;20039;-65
2023/11/07 08:58:00;;;;;;;11.50;9.77;;;;;;;17.47;74.55;100445.59;5074861;28;20036;-68
2023/11/07 09:00:27;;;;;;;8.90;7.07;;;;;;;17.39;74.59;100445.72;5074180;28;20081;-66
2023/11/07 09:02:53;;;;;;;6.88;6.20;;;;;;;17.34;75.93;100442.78;5074640;28;20308;-68
2023/11/07 09:05:20;;;;;;;9.70;7.00;;;;;;;17.28;75.89;100443.53;5074520;28;20220;-65
2023/11/07 09:07:46;;;;;;;10.80;7.65;;;;;;;17.28;75.66;100440.88;5074739;28;20337;-65
2023/11/07 09:10:11;;;;;;;8.63;4.35;;;;;;;17.37;76.03;100442.41;5074511;28;20032;-68
2023/11/07 09:12:37;;;;;;;9.07;6.25;;;;;;;17.46;76.66;100436.75;5074684;28;20356;-68
2023/11/07 09:15:05;;;;;;;4.82;2.33;;;;;;;17.64;76.89;100436.31;5074724;28;20104;-68
2023/11/07 09:17:32;;;;;;;5.00;2.25;;;;;;;17.71;76.70;100428.41;5074782;28;20037;-65
2023/11/07 09:19:59;;;;;;;9.48;2.53;;;;;;;17.76;76.63;100431.34;5074488;28;20055;-65
2023/11/07 09:22:25;;;;;;;6.95;2.38;;;;;;;17.87;76.50;100425.47;5074725;28;20032;-68
2023/11/07 09:24:51;;;;;;;6.65;2.85;;;;;;;17.93;76.47;100429.22;5074615;28;20035;-69
2023/11/07 09:27:16;;;;;;;5.13;3.10;;;;;;;17.98;77.20;100419.56;5074234;28;20334;-68
2023/11/07 09:29:43;;;;;;;4.13;1.80;;;;;;;18.06;75.43;100418.59;5074732;28;20032;-68
2023/11/07 09:32:09;;;;;;;3.13;1.60;;;;;;;18.11;73.21;100408.13;5074606;28;20039;-68
2023/11/07 09:34:39;;;;;;;4.55;2.13;;;;;;;18.13;73.02;100404.22;5074769;28;20040;-68
2023/11/07 09:37:05;;;;;;;6.65;1.92;;;;;;;18.22;71.65;100409.44;5076221;28;20036;-65
2023/11/07 09:39:30;;;;;;;3.67;2.80;;;;;;;18.26;70.78;100389.25;5075420;28;20373;-68
2023/11/07 09:41:58;;;;;;;5.95;1.95;;;;;;;18.26;71.26;100392.78;5074329;28;20037;-65
2023/11/07 09:44:23;;;;;;;4.32;2.13;;;;;;;18.32;70.15;100385.78;5074109;28;20049;-65
2023/11/07 09:46:50;;;;;;;11.25;8.57;;;;;;;18.25;70.56;100376.88;5074196;28;20040;-66
2023/11/07 09:49:16;;;;;;;5.05;1.90;;;;;;;18.35;70.30;100369.31;5074856;28;20109;-65
2023/11/07 09:51:46;;;;;;;3.45;1.30;;;;;;;18.43;68.29;100363.78;5074051;28;20049;-68
2023/11/07 09:54:14;;;;;;;24.33;3.47;;;;;;;18.49;68.99;100361.16;5073877;28;20032;-68
2023/11/07 09:56:40;;;;;;;4.88;1.70;;;;;;;18.56;69.00;100353.13;5073595;28;20056;-65
2023/11/07 09:59:37;;;;;;;6.22;1.88;;;;;;;18.64;69.00;100341.44;5073785;28;20040;-65
2023/11/07 10:02:05;;;;;;;7.60;2.00;;;;;;;18.62;68.45;100328.22;5073896;28;20074;-66
2023/11/07 10:04:32;;;;;;;3.53;1.50;;;;;;;18.65;70.61;100335.06;5073763;28;20043;-65
2023/11/07 10:07:01;;;;;;;4.45;1.85;;;;;;;18.66;70.34;100331.34;5074159;28;20047;-68
2023/11/07 10:09:26;;;;;;;4.22;1.92;;;;;;;18.69;69.08;100330.94;5074722;28;20064;-65
2023/11/07 10:11:53;;;;;;;2.95;1.63;;;;;;;18.74;69.80;100329.34;5074136;28;20086;-68
2023/11/07 10:14:22;;;;;;;4.28;1.73;;;;;;;18.73;67.57;100318.81;5076029;28;20214;-66
2023/11/07 10:16:55;;;;;;;4.68;1.88;;;;;;;18.77;66.88;100314.69;5075655;28;20040;-65
2023/11/07 10:19:23;;;;;;;5.05;1.85;;;;;;;18.70;66.42;100316.50;5074898;28;20135;-68
2023/11/07 10:21:49;;;;;;;5.60;1.67;;;;;;;18.73;67.49;100311.59;5077915;28;20041;-66
2023/11/07 10:24:15;;;;;;;3.35;1.95;;;;;;;18.73;66.35;100308.09;5079352;28;20021;-68
2023/11/07 10:26:58;;;;;;;8.02;2.45;;;;;;;18.74;64.57;100297.16;5079222;28;20032;-66
2023/11/07 10:29:30;;;;;;;5.60;2.25;;;;;;;18.77;67.13;100301.28;5079406;28;20032;-68
2023/11/07 10:32:08;;;;;;;6.35;2.25;;;;;;;18.74;67.95;100299.00;5079427;28;20079;-65
2023/11/07 10:34:35;;;;;;;4.65;1.40;;;;;;;18.79;67.40;100304.59;5079789;28;20037;-68
2023/11/07 10:37:01;;;;;;;5.53;1.73;;;;;;;18.85;65.77;100303.78;5080434;28;20340;-66
2023/11/07 10:39:27;;;;;;;4.15;2.20;;;;;;;18.76;66.81;100292.41;5079083;28;20021;-65
2023/11/07 10:41:54;;;;;;;4.55;2.38;;;;;;;18.79;67.42;100286.63;5080091;28;20285;-68
2023/11/07 10:44:25;;;;;;;2.97;1.58;;;;;;;18.89;66.65;100288.94;5079100;28;20048;-68
2023/11/07 10:46:53;;;;;;;2.47;1.60;;;;;;;18.98;65.21;100282.34;5079180;28;20219;-68
2023/11/07 10:49:19;;;;;;;5.82;1.88;;;;;;;18.97;64.02;100279.88;5079643;28;20071;-65
2023/11/07 10:51:45;;;;;;;5.70;1.63;;;;;;;18.88;64.33;100279.22;5078553;28;20368;-65
2023/11/07 10:54:12;;;;;;;3.92;1.65;;;;;;;18.89;65.79;100275.50;5078918;28;20280;-66
2023/11/07 10:56:44;;;;;;;3.95;1.55;;;;;;;18.90;66.60;100276.34;5079210;28;20032;-65
2023/11/07 10:59:24;;;;;;;5.00;1.75;;;;;;;18.75;64.15;100269.28;5078765;28;20031;-66
2023/11/07 11:01:52;;;;;;;5.57;1.60;;;;;;;18.77;64.22;100266.41;5078433;28;20355;-68
2023/11/07 11:04:20;;;;;;;3.67;1.67;;;;;;;18.78;65.51;100260.84;5078489;28;20036;-68
2023/11/07 11:06:57;;;;;;;3.97;2.05;;;;;;;18.76;66.80;100260.22;5078768;28;20395;-65
2023/11/07 11:09:25;;;;;;;4.22;1.88;;;;;;;18.82;65.85;100255.91;5077996;28;20203;-68
2023/11/07 11:11:51;;;;;;;4.28;1.90;;;;;;;18.77;65.94;100253.81;5078451;28;20133;-65
2023/11/07 11:14:19;;;;;;;3.97;2.47;;;;;;;18.74;64.91;100240.81;5079060;28;20146;-66
2023/11/07 11:16:50;;;;;;;4.88;3.42;;;;;;;18.77;66.08;100232.34;5077074;28;20364;-65
2023/11/07 11:19:28;;;;;;;5.95;2.40;;;;;;;18.75;67.17;100234.41;5077280;28;20032;-68
2023/11/07 11:22:17;;;;;;;5.00;3.45;;;;;;;18.77;67.07;100235.03;5077012;28;20066;-68